sensor_id;sensor_type;location;lat;lon;timestamp;P1;durP1;ratioP1;P2;durP2;ratioP2
12623;SDS011;6377;42.836;23.998;2022-12-18T00:01:21;15.33;;;11.20;;
12623;SDS011;6377;42.836;23.998;2022-12-18T00:03:50;13.97;;;10.17;;
12623;SDS011;6377;42.836;23.998;2022-12-18T00:06:19;9.63;;;7.80;;
12623;SDS011;6377;42.836;23.998;2022-12-18T00:08:47;12.80;;;9.13;;
12623;SDS011;6377;42.836;23.998;2022-12-18T00:11:16;9.40;;;7.63;;
12623;SDS011;6377;42.836;23.998;2022-12-18T00:13:45;16.80;;;10.70;;
12623;SDS011;6377;42.836;23.998;2022-12-18T00:16:15;12.17;;;8.93;;
12623;SDS011;6377;42.836;23.998;2022-12-18T00:18:45;17.63;;;12.20;;
12623;SDS011;6377;42.836;23.998;2022-12-18T00:21:14;9.73;;;7.30;;
12623;SDS011;6377;42.836;23.998;2022-12-18T00:23:42;7.63;;;6.30;;
12623;SDS011;6377;42.836;23.998;2022-12-18T00:26:11;12.40;;;8.70;;
12623;SDS011;6377;42.836;23.998;2022-12-18T00:28:40;11.07;;;8.10;;
12623;SDS011;6377;42.836;23.998;2022-12-18T00:31:08;12.27;;;10.03;;
12623;SDS011;6377;42.836;23.998;2022-12-18T00:33:38;13.63;;;10.20;;
12623;SDS011;6377;42.836;23.998;2022-12-18T00:36:07;11.00;;;8.43;;
12623;SDS011;6377;42.836;23.998;2022-12-18T00:38:37;11.53;;;8.13;;
12623;SDS011;6377;42.836;23.998;2022-12-18T00:41:05;11.20;;;7.63;;
12623;SDS011;6377;42.836;23.998;2022-12-18T00:43:34;14.07;;;8.83;;
12623;SDS011;6377;42.836;23.998;2022-12-18T00:46:00;12.37;;;8.03;;
12623;SDS011;6377;42.836;23.998;2022-12-18T00:48:28;11.03;;;8.53;;
12623;SDS011;6377;42.836;23.998;2022-12-18T00:50:57;11.70;;;9.07;;
12623;SDS011;6377;42.836;23.998;2022-12-18T00:53:25;16.27;;;10.60;;
12623;SDS011;6377;42.836;23.998;2022-12-18T00:55:54;20.17;;;11.90;;
12623;SDS011;6377;42.836;23.998;2022-12-18T00:58:22;16.70;;;11.23;;
12623;SDS011;6377;42.836;23.998;2022-12-18T01:00:50;20.70;;;14.73;;
12623;SDS011;6377;42.836;23.998;2022-12-18T01:03:17;21.53;;;13.87;;
12623;SDS011;6377;42.836;23.998;2022-12-18T01:05:45;11.40;;;9.33;;
12623;SDS011;6377;42.836;23.998;2022-12-18T01:08:14;15.37;;;11.07;;
12623;SDS011;6377;42.836;23.998;2022-12-18T01:10:42;12.30;;;8.93;;
12623;SDS011;6377;42.836;23.998;2022-12-18T01:13:09;18.47;;;13.47;;
12623;SDS011;6377;42.836;23.998;2022-12-18T01:15:37;23.40;;;15.90;;
12623;SDS011;6377;42.836;23.998;2022-12-18T01:18:05;13.00;;;9.10;;
12623;SDS011;6377;42.836;23.998;2022-12-18T01:20:33;14.37;;;8.37;;
12623;SDS011;6377;42.836;23.998;2022-12-18T01:23:00;15.30;;;9.70;;
12623;SDS011;6377;42.836;23.998;2022-12-18T01:25:29;11.70;;;8.63;;
12623;SDS011;6377;42.836;23.998;2022-12-18T01:27:58;11.43;;;8.80;;
12623;SDS011;6377;42.836;23.998;2022-12-18T01:33:35;12.77;;;8.60;;
12623;SDS011;6377;42.836;23.998;2022-12-18T01:36:31;11.93;;;8.67;;
12623;SDS011;6377;42.836;23.998;2022-12-18T01:39:39;12.43;;;8.43;;
12623;SDS011;6377;42.836;23.998;2022-12-18T01:42:10;13.43;;;9.33;;
12623;SDS011;6377;42.836;23.998;2022-12-18T01:48:03;14.10;;;9.37;;
12623;SDS011;6377;42.836;23.998;2022-12-18T01:50:34;12.03;;;8.27;;
12623;SDS011;6377;42.836;23.998;2022-12-18T01:53:52;11.30;;;7.63;;
12623;SDS011;6377;42.836;23.998;2022-12-18T01:56:24;11.17;;;7.50;;
12623;SDS011;6377;42.836;23.998;2022-12-18T01:58:54;10.00;;;7.43;;
12623;SDS011;6377;42.836;23.998;2022-12-18T02:01:28;10.27;;;7.07;;
12623;SDS011;6377;42.836;23.998;2022-12-18T02:04:10;8.93;;;6.80;;
12623;SDS011;6377;42.836;23.998;2022-12-18T02:07:23;9.90;;;7.67;;
12623;SDS011;6377;42.836;23.998;2022-12-18T02:09:59;9.63;;;7.47;;
12623;SDS011;6377;42.836;23.998;2022-12-18T02:12:32;10.17;;;6.80;;
12623;SDS011;6377;42.836;23.998;2022-12-18T02:15:13;11.50;;;8.50;;
12623;SDS011;6377;42.836;23.998;2022-12-18T02:17:50;11.70;;;7.00;;
12623;SDS011;6377;42.836;23.998;2022-12-18T02:20:55;10.10;;;7.40;;
12623;SDS011;6377;42.836;23.998;2022-12-18T02:23:47;14.23;;;10.90;;
12623;SDS011;6377;42.836;23.998;2022-12-18T02:26:47;13.17;;;10.43;;
12623;SDS011;6377;42.836;23.998;2022-12-18T02:29:40;12.30;;;8.97;;
12623;SDS011;6377;42.836;23.998;2022-12-18T02:32:39;16.80;;;11.63;;
12623;SDS011;6377;42.836;23.998;2022-12-18T02:35:10;17.00;;;11.60;;
12623;SDS011;6377;42.836;23.998;2022-12-18T02:37:47;15.70;;;10.97;;
12623;SDS011;6377;42.836;23.998;2022-12-18T02:40:15;25.10;;;16.43;;
12623;SDS011;6377;42.836;23.998;2022-12-18T02:42:47;11.57;;;8.53;;
12623;SDS011;6377;42.836;23.998;2022-12-18T02:45:15;16.47;;;9.90;;
12623;SDS011;6377;42.836;23.998;2022-12-18T02:47:43;20.77;;;10.90;;
12623;SDS011;6377;42.836;23.998;2022-12-18T02:50:16;13.43;;;7.93;;
12623;SDS011;6377;42.836;23.998;2022-12-18T02:52:52;10.10;;;7.10;;
12623;SDS011;6377;42.836;23.998;2022-12-18T02:55:32;11.23;;;6.63;;
12623;SDS011;6377;42.836;23.998;2022-12-18T03:01:24;12.17;;;7.77;;
12623;SDS011;6377;42.836;23.998;2022-12-18T03:04:11;16.10;;;8.50;;
12623;SDS011;6377;42.836;23.998;2022-12-18T03:06:44;12.20;;;7.60;;
12623;SDS011;6377;42.836;23.998;2022-12-18T03:09:17;14.37;;;9.40;;
12623;SDS011;6377;42.836;23.998;2022-12-18T03:11:50;22.17;;;11.30;;
12623;SDS011;6377;42.836;23.998;2022-12-18T03:14:38;15.67;;;8.73;;
12623;SDS011;6377;42.836;23.998;2022-12-18T03:17:10;9.37;;;6.63;;
12623;SDS011;6377;42.836;23.998;2022-12-18T03:19:53;13.87;;;6.73;;
12623;SDS011;6377;42.836;23.998;2022-12-18T03:22:51;16.03;;;10.47;;
12623;SDS011;6377;42.836;23.998;2022-12-18T03:25:22;11.73;;;8.40;;
12623;SDS011;6377;42.836;23.998;2022-12-18T03:27:55;10.97;;;7.37;;
12623;SDS011;6377;42.836;23.998;2022-12-18T03:31:10;8.57;;;6.83;;
12623;SDS011;6377;42.836;23.998;2022-12-18T03:33:57;9.37;;;6.80;;
12623;SDS011;6377;42.836;23.998;2022-12-18T03:36:28;8.13;;;6.83;;
12623;SDS011;6377;42.836;23.998;2022-12-18T03:38:58;8.43;;;6.37;;
12623;SDS011;6377;42.836;23.998;2022-12-18T03:41:27;7.03;;;5.50;;
12623;SDS011;6377;42.836;23.998;2022-12-18T03:44:00;6.73;;;5.30;;
12623;SDS011;6377;42.836;23.998;2022-12-18T03:46:39;6.73;;;5.23;;
12623;SDS011;6377;42.836;23.998;2022-12-18T03:49:18;5.43;;;4.70;;
12623;SDS011;6377;42.836;23.998;2022-12-18T03:51:52;5.57;;;4.60;;
12623;SDS011;6377;42.836;23.998;2022-12-18T03:54:58;5.87;;;4.70;;
12623;SDS011;6377;42.836;23.998;2022-12-18T03:57:28;6.83;;;4.63;;
12623;SDS011;6377;42.836;23.998;2022-12-18T03:59:59;5.47;;;4.27;;
12623;SDS011;6377;42.836;23.998;2022-12-18T04:02:30;4.60;;;4.07;;
12623;SDS011;6377;42.836;23.998;2022-12-18T04:05:03;6.23;;;4.60;;
12623;SDS011;6377;42.836;23.998;2022-12-18T04:07:34;4.87;;;4.27;;
12623;SDS011;6377;42.836;23.998;2022-12-18T04:10:02;6.27;;;4.13;;
12623;SDS011;6377;42.836;23.998;2022-12-18T04:12:33;5.47;;;4.20;;
12623;SDS011;6377;42.836;23.998;2022-12-18T04:15:01;4.63;;;3.77;;
12623;SDS011;6377;42.836;23.998;2022-12-18T04:17:29;5.30;;;4.03;;
12623;SDS011;6377;42.836;23.998;2022-12-18T04:19:57;4.40;;;3.87;;
12623;SDS011;6377;42.836;23.998;2022-12-18T04:22:26;5.13;;;4.27;;
12623;SDS011;6377;42.836;23.998;2022-12-18T04:24:54;5.03;;;4.20;;
12623;SDS011;6377;42.836;23.998;2022-12-18T04:27:21;7.17;;;4.77;;
12623;SDS011;6377;42.836;23.998;2022-12-18T04:29:49;6.30;;;4.53;;
12623;SDS011;6377;42.836;23.998;2022-12-18T04:32:16;5.53;;;4.93;;
12623;SDS011;6377;42.836;23.998;2022-12-18T04:34:44;5.80;;;5.17;;
12623;SDS011;6377;42.836;23.998;2022-12-18T04:37:11;5.60;;;5.00;;
12623;SDS011;6377;42.836;23.998;2022-12-18T04:39:40;6.43;;;4.90;;
12623;SDS011;6377;42.836;23.998;2022-12-18T04:42:08;6.43;;;5.63;;
12623;SDS011;6377;42.836;23.998;2022-12-18T04:44:36;7.00;;;5.33;;
12623;SDS011;6377;42.836;23.998;2022-12-18T04:47:03;6.57;;;5.20;;
12623;SDS011;6377;42.836;23.998;2022-12-18T04:49:31;7.40;;;5.53;;
12623;SDS011;6377;42.836;23.998;2022-12-18T04:51:59;6.50;;;5.40;;
12623;SDS011;6377;42.836;23.998;2022-12-18T04:54:26;7.20;;;6.03;;
12623;SDS011;6377;42.836;23.998;2022-12-18T04:56:55;5.50;;;4.70;;
12623;SDS011;6377;42.836;23.998;2022-12-18T04:59:23;7.87;;;5.67;;
12623;SDS011;6377;42.836;23.998;2022-12-18T05:01:50;9.83;;;6.17;;
12623;SDS011;6377;42.836;23.998;2022-12-18T05:04:18;6.97;;;5.47;;
12623;SDS011;6377;42.836;23.998;2022-12-18T05:06:45;12.90;;;10.40;;
12623;SDS011;6377;42.836;23.998;2022-12-18T05:09:13;9.97;;;8.10;;
12623;SDS011;6377;42.836;23.998;2022-12-18T05:11:41;10.30;;;7.23;;
12623;SDS011;6377;42.836;23.998;2022-12-18T05:14:10;11.70;;;6.27;;
12623;SDS011;6377;42.836;23.998;2022-12-18T05:16:37;7.87;;;5.93;;
12623;SDS011;6377;42.836;23.998;2022-12-18T05:19:05;9.10;;;6.13;;
12623;SDS011;6377;42.836;23.998;2022-12-18T05:21:32;8.60;;;6.37;;
12623;SDS011;6377;42.836;23.998;2022-12-18T05:24:00;9.17;;;6.20;;
12623;SDS011;6377;42.836;23.998;2022-12-18T05:26:27;7.17;;;5.83;;
12623;SDS011;6377;42.836;23.998;2022-12-18T05:28:54;8.40;;;6.60;;
12623;SDS011;6377;42.836;23.998;2022-12-18T05:31:25;11.90;;;8.03;;
12623;SDS011;6377;42.836;23.998;2022-12-18T05:33:52;11.90;;;7.80;;
12623;SDS011;6377;42.836;23.998;2022-12-18T05:36:19;14.67;;;9.70;;
12623;SDS011;6377;42.836;23.998;2022-12-18T05:38:47;15.93;;;11.63;;
12623;SDS011;6377;42.836;23.998;2022-12-18T05:41:14;17.93;;;11.90;;
12623;SDS011;6377;42.836;23.998;2022-12-18T05:43:42;10.73;;;7.63;;
12623;SDS011;6377;42.836;23.998;2022-12-18T05:46:12;8.60;;;6.37;;
12623;SDS011;6377;42.836;23.998;2022-12-18T05:48:43;13.73;;;11.77;;
12623;SDS011;6377;42.836;23.998;2022-12-18T05:51:13;12.10;;;8.57;;
12623;SDS011;6377;42.836;23.998;2022-12-18T05:53:42;9.33;;;7.37;;
12623;SDS011;6377;42.836;23.998;2022-12-18T05:56:10;12.20;;;8.00;;
12623;SDS011;6377;42.836;23.998;2022-12-18T05:58:39;31.37;;;20.63;;
12623;SDS011;6377;42.836;23.998;2022-12-18T06:01:08;43.50;;;29.63;;
12623;SDS011;6377;42.836;23.998;2022-12-18T06:03:37;16.53;;;12.57;;
12623;SDS011;6377;42.836;23.998;2022-12-18T06:06:13;14.17;;;11.17;;
12623;SDS011;6377;42.836;23.998;2022-12-18T06:08:41;24.03;;;16.77;;
12623;SDS011;6377;42.836;23.998;2022-12-18T06:11:09;27.23;;;19.23;;
12623;SDS011;6377;42.836;23.998;2022-12-18T06:13:36;12.57;;;9.50;;
12623;SDS011;6377;42.836;23.998;2022-12-18T06:16:04;15.33;;;10.90;;
12623;SDS011;6377;42.836;23.998;2022-12-18T06:18:32;13.10;;;10.30;;
12623;SDS011;6377;42.836;23.998;2022-12-18T06:21:00;14.53;;;11.20;;
12623;SDS011;6377;42.836;23.998;2022-12-18T06:23:29;15.07;;;10.37;;
12623;SDS011;6377;42.836;23.998;2022-12-18T06:25:57;26.80;;;17.60;;
12623;SDS011;6377;42.836;23.998;2022-12-18T06:28:24;50.17;;;28.83;;
12623;SDS011;6377;42.836;23.998;2022-12-18T06:30:52;79.70;;;40.60;;
12623;SDS011;6377;42.836;23.998;2022-12-18T06:33:19;104.33;;;51.63;;
12623;SDS011;6377;42.836;23.998;2022-12-18T06:35:47;33.57;;;20.07;;
12623;SDS011;6377;42.836;23.998;2022-12-18T06:38:14;75.03;;;44.17;;
12623;SDS011;6377;42.836;23.998;2022-12-18T06:40:43;50.83;;;30.67;;
12623;SDS011;6377;42.836;23.998;2022-12-18T06:43:11;49.80;;;32.00;;
12623;SDS011;6377;42.836;23.998;2022-12-18T06:45:39;24.73;;;17.30;;
12623;SDS011;6377;42.836;23.998;2022-12-18T06:48:07;10.87;;;9.03;;
12623;SDS011;6377;42.836;23.998;2022-12-18T06:50:34;9.40;;;7.47;;
12623;SDS011;6377;42.836;23.998;2022-12-18T06:53:02;7.97;;;6.53;;
12623;SDS011;6377;42.836;23.998;2022-12-18T06:55:29;9.03;;;7.30;;
12623;SDS011;6377;42.836;23.998;2022-12-18T06:57:58;14.47;;;10.90;;
12623;SDS011;6377;42.836;23.998;2022-12-18T07:00:26;11.60;;;8.70;;
12623;SDS011;6377;42.836;23.998;2022-12-18T07:02:54;9.73;;;7.07;;
12623;SDS011;6377;42.836;23.998;2022-12-18T07:05:21;9.23;;;6.97;;
12623;SDS011;6377;42.836;23.998;2022-12-18T07:07:49;12.93;;;8.97;;
12623;SDS011;6377;42.836;23.998;2022-12-18T07:10:16;17.23;;;12.63;;
12623;SDS011;6377;42.836;23.998;2022-12-18T07:12:44;22.03;;;15.77;;
12623;SDS011;6377;42.836;23.998;2022-12-18T07:15:13;18.37;;;14.07;;
12623;SDS011;6377;42.836;23.998;2022-12-18T07:17:41;15.83;;;11.83;;
12623;SDS011;6377;42.836;23.998;2022-12-18T07:20:09;8.83;;;7.73;;
12623;SDS011;6377;42.836;23.998;2022-12-18T07:22:37;10.80;;;8.30;;
12623;SDS011;6377;42.836;23.998;2022-12-18T07:25:05;12.40;;;10.20;;
12623;SDS011;6377;42.836;23.998;2022-12-18T07:27:34;11.13;;;10.03;;
12623;SDS011;6377;42.836;23.998;2022-12-18T07:30:02;12.47;;;10.33;;
12623;SDS011;6377;42.836;23.998;2022-12-18T07:32:32;48.73;;;34.20;;
12623;SDS011;6377;42.836;23.998;2022-12-18T07:35:00;43.63;;;31.07;;
12623;SDS011;6377;42.836;23.998;2022-12-18T07:37:31;36.17;;;25.20;;
12623;SDS011;6377;42.836;23.998;2022-12-18T07:39:59;22.00;;;17.83;;
12623;SDS011;6377;42.836;23.998;2022-12-18T07:42:26;27.97;;;23.17;;
12623;SDS011;6377;42.836;23.998;2022-12-18T07:44:57;25.43;;;21.20;;
12623;SDS011;6377;42.836;23.998;2022-12-18T07:47:24;18.87;;;14.60;;
12623;SDS011;6377;42.836;23.998;2022-12-18T07:49:54;15.27;;;12.93;;
12623;SDS011;6377;42.836;23.998;2022-12-18T07:52:21;17.17;;;13.90;;
12623;SDS011;6377;42.836;23.998;2022-12-18T07:54:49;15.03;;;11.67;;
12623;SDS011;6377;42.836;23.998;2022-12-18T07:57:17;14.80;;;11.30;;
12623;SDS011;6377;42.836;23.998;2022-12-18T07:59:44;13.50;;;10.50;;
12623;SDS011;6377;42.836;23.998;2022-12-18T08:02:12;13.53;;;12.10;;
12623;SDS011;6377;42.836;23.998;2022-12-18T08:04:40;14.90;;;11.57;;
12623;SDS011;6377;42.836;23.998;2022-12-18T08:07:09;15.77;;;11.83;;
12623;SDS011;6377;42.836;23.998;2022-12-18T08:09:36;21.10;;;15.03;;
12623;SDS011;6377;42.836;23.998;2022-12-18T08:12:04;14.73;;;11.83;;
12623;SDS011;6377;42.836;23.998;2022-12-18T08:14:33;10.47;;;8.03;;
12623;SDS011;6377;42.836;23.998;2022-12-18T08:17:00;8.13;;;7.30;;
12623;SDS011;6377;42.836;23.998;2022-12-18T08:19:28;8.97;;;7.63;;
12623;SDS011;6377;42.836;23.998;2022-12-18T08:21:55;10.90;;;8.13;;
12623;SDS011;6377;42.836;23.998;2022-12-18T08:24:25;19.70;;;14.37;;
12623;SDS011;6377;42.836;23.998;2022-12-18T08:26:52;22.60;;;14.77;;
12623;SDS011;6377;42.836;23.998;2022-12-18T08:29:20;15.97;;;13.50;;
12623;SDS011;6377;42.836;23.998;2022-12-18T08:31:48;49.10;;;27.30;;
12623;SDS011;6377;42.836;23.998;2022-12-18T08:34:15;40.73;;;25.27;;
12623;SDS011;6377;42.836;23.998;2022-12-18T08:36:43;16.93;;;12.97;;
12623;SDS011;6377;42.836;23.998;2022-12-18T08:39:11;25.57;;;18.00;;
12623;SDS011;6377;42.836;23.998;2022-12-18T08:41:41;17.37;;;13.87;;
12623;SDS011;6377;42.836;23.998;2022-12-18T08:44:28;28.10;;;21.13;;
12623;SDS011;6377;42.836;23.998;2022-12-18T08:47:03;28.73;;;20.30;;
12623;SDS011;6377;42.836;23.998;2022-12-18T08:49:31;30.73;;;19.80;;
12623;SDS011;6377;42.836;23.998;2022-12-18T08:51:59;29.53;;;21.43;;
12623;SDS011;6377;42.836;23.998;2022-12-18T08:54:28;30.73;;;21.63;;
12623;SDS011;6377;42.836;23.998;2022-12-18T08:56:57;27.20;;;19.87;;
12623;SDS011;6377;42.836;23.998;2022-12-18T08:59:25;24.03;;;17.67;;
12623;SDS011;6377;42.836;23.998;2022-12-18T09:01:53;21.67;;;13.53;;
12623;SDS011;6377;42.836;23.998;2022-12-18T09:04:21;38.93;;;19.60;;
12623;SDS011;6377;42.836;23.998;2022-12-18T09:06:49;31.27;;;20.37;;
12623;SDS011;6377;42.836;23.998;2022-12-18T09:09:16;15.57;;;11.83;;
12623;SDS011;6377;42.836;23.998;2022-12-18T09:11:44;20.90;;;15.73;;
12623;SDS011;6377;42.836;23.998;2022-12-18T09:14:13;24.57;;;18.17;;
12623;SDS011;6377;42.836;23.998;2022-12-18T09:16:40;29.07;;;20.77;;
12623;SDS011;6377;42.836;23.998;2022-12-18T09:19:08;27.37;;;15.97;;
12623;SDS011;6377;42.836;23.998;2022-12-18T09:21:36;20.90;;;12.83;;
12623;SDS011;6377;42.836;23.998;2022-12-18T09:24:04;15.83;;;9.87;;
12623;SDS011;6377;42.836;23.998;2022-12-18T09:26:32;12.43;;;8.93;;
12623;SDS011;6377;42.836;23.998;2022-12-18T09:29:02;11.90;;;8.83;;
12623;SDS011;6377;42.836;23.998;2022-12-18T09:31:31;17.03;;;11.50;;
12623;SDS011;6377;42.836;23.998;2022-12-18T09:33:59;16.70;;;10.63;;
12623;SDS011;6377;42.836;23.998;2022-12-18T09:36:26;28.53;;;17.23;;
12623;SDS011;6377;42.836;23.998;2022-12-18T09:38:54;21.23;;;15.17;;
12623;SDS011;6377;42.836;23.998;2022-12-18T09:41:27;8.13;;;6.83;;
12623;SDS011;6377;42.836;23.998;2022-12-18T09:44:11;12.87;;;11.47;;
12623;SDS011;6377;42.836;23.998;2022-12-18T09:46:47;18.97;;;15.00;;
12623;SDS011;6377;42.836;23.998;2022-12-18T09:49:18;26.80;;;21.00;;
12623;SDS011;6377;42.836;23.998;2022-12-18T09:51:50;21.37;;;17.10;;
12623;SDS011;6377;42.836;23.998;2022-12-18T09:54:21;13.53;;;10.90;;
12623;SDS011;6377;42.836;23.998;2022-12-18T09:56:52;11.80;;;9.60;;
12623;SDS011;6377;42.836;23.998;2022-12-18T09:59:23;11.97;;;9.73;;
12623;SDS011;6377;42.836;23.998;2022-12-18T10:01:55;16.73;;;11.90;;
12623;SDS011;6377;42.836;23.998;2022-12-18T10:04:23;25.23;;;17.60;;
12623;SDS011;6377;42.836;23.998;2022-12-18T10:06:52;15.67;;;10.40;;
12623;SDS011;6377;42.836;23.998;2022-12-18T10:09:29;11.23;;;8.60;;
12623;SDS011;6377;42.836;23.998;2022-12-18T10:12:06;9.70;;;6.77;;
12623;SDS011;6377;42.836;23.998;2022-12-18T10:14:42;7.43;;;6.20;;
12623;SDS011;6377;42.836;23.998;2022-12-18T10:17:22;7.47;;;5.50;;
12623;SDS011;6377;42.836;23.998;2022-12-18T10:19:55;8.00;;;5.80;;
12623;SDS011;6377;42.836;23.998;2022-12-18T10:22:29;8.27;;;5.57;;
12623;SDS011;6377;42.836;23.998;2022-12-18T10:25:05;10.30;;;7.37;;
12623;SDS011;6377;42.836;23.998;2022-12-18T10:27:51;11.37;;;8.27;;
12623;SDS011;6377;42.836;23.998;2022-12-18T10:30:22;8.43;;;6.07;;
12623;SDS011;6377;42.836;23.998;2022-12-18T10:32:53;10.67;;;7.60;;
12623;SDS011;6377;42.836;23.998;2022-12-18T10:35:23;9.63;;;6.70;;
12623;SDS011;6377;42.836;23.998;2022-12-18T10:37:59;10.50;;;7.30;;
12623;SDS011;6377;42.836;23.998;2022-12-18T10:40:31;10.03;;;5.67;;
12623;SDS011;6377;42.836;23.998;2022-12-18T10:43:09;13.73;;;10.77;;
12623;SDS011;6377;42.836;23.998;2022-12-18T10:45:38;9.30;;;7.03;;
12623;SDS011;6377;42.836;23.998;2022-12-18T10:48:18;6.97;;;6.10;;
12623;SDS011;6377;42.836;23.998;2022-12-18T10:50:49;10.23;;;6.97;;
12623;SDS011;6377;42.836;23.998;2022-12-18T10:53:19;23.53;;;17.13;;
12623;SDS011;6377;42.836;23.998;2022-12-18T10:55:48;39.53;;;25.30;;
12623;SDS011;6377;42.836;23.998;2022-12-18T10:58:21;33.93;;;21.53;;
12623;SDS011;6377;42.836;23.998;2022-12-18T11:01:07;24.60;;;18.07;;
12623;SDS011;6377;42.836;23.998;2022-12-18T11:03:39;42.30;;;29.30;;
12623;SDS011;6377;42.836;23.998;2022-12-18T11:06:09;23.37;;;17.83;;
12623;SDS011;6377;42.836;23.998;2022-12-18T11:08:37;11.07;;;8.53;;
12623;SDS011;6377;42.836;23.998;2022-12-18T11:11:09;11.20;;;8.83;;
12623;SDS011;6377;42.836;23.998;2022-12-18T11:13:48;10.80;;;9.57;;
12623;SDS011;6377;42.836;23.998;2022-12-18T11:16:25;12.17;;;9.47;;
12623;SDS011;6377;42.836;23.998;2022-12-18T11:19:01;13.90;;;11.20;;
12623;SDS011;6377;42.836;23.998;2022-12-18T11:21:46;8.57;;;6.93;;
12623;SDS011;6377;42.836;23.998;2022-12-18T11:24:19;14.47;;;10.27;;
12623;SDS011;6377;42.836;23.998;2022-12-18T11:26:51;8.67;;;6.43;;
12623;SDS011;6377;42.836;23.998;2022-12-18T11:29:22;10.83;;;8.30;;
12623;SDS011;6377;42.836;23.998;2022-12-18T11:31:59;9.87;;;7.97;;
12623;SDS011;6377;42.836;23.998;2022-12-18T11:35:03;8.00;;;6.10;;
12623;SDS011;6377;42.836;23.998;2022-12-18T11:37:39;8.37;;;6.53;;
12623;SDS011;6377;42.836;23.998;2022-12-18T11:40:11;7.20;;;5.93;;
12623;SDS011;6377;42.836;23.998;2022-12-18T11:42:44;7.50;;;5.77;;
12623;SDS011;6377;42.836;23.998;2022-12-18T11:45:20;11.50;;;8.23;;
12623;SDS011;6377;42.836;23.998;2022-12-18T11:47:54;13.50;;;9.97;;
12623;SDS011;6377;42.836;23.998;2022-12-18T11:50:28;8.43;;;5.70;;
12623;SDS011;6377;42.836;23.998;2022-12-18T11:53:01;10.80;;;7.00;;
12623;SDS011;6377;42.836;23.998;2022-12-18T11:55:31;14.07;;;8.37;;
12623;SDS011;6377;42.836;23.998;2022-12-18T11:58:07;26.27;;;10.87;;
12623;SDS011;6377;42.836;23.998;2022-12-18T12:00:44;11.03;;;7.93;;
12623;SDS011;6377;42.836;23.998;2022-12-18T12:03:22;14.50;;;9.43;;
12623;SDS011;6377;42.836;23.998;2022-12-18T12:06:08;13.90;;;9.87;;
12623;SDS011;6377;42.836;23.998;2022-12-18T12:08:48;12.73;;;8.03;;
12623;SDS011;6377;42.836;23.998;2022-12-18T12:11:37;38.57;;;23.07;;
12623;SDS011;6377;42.836;23.998;2022-12-18T12:14:22;21.27;;;12.67;;
12623;SDS011;6377;42.836;23.998;2022-12-18T12:17:02;13.50;;;8.40;;
12623;SDS011;6377;42.836;23.998;2022-12-18T12:19:39;9.20;;;6.70;;
12623;SDS011;6377;42.836;23.998;2022-12-18T12:22:20;24.80;;;14.00;;
12623;SDS011;6377;42.836;23.998;2022-12-18T12:24:59;19.57;;;12.50;;
12623;SDS011;6377;42.836;23.998;2022-12-18T12:27:38;30.07;;;17.20;;
12623;SDS011;6377;42.836;23.998;2022-12-18T12:30:16;22.77;;;13.90;;
12623;SDS011;6377;42.836;23.998;2022-12-18T12:32:53;16.37;;;11.70;;
12623;SDS011;6377;42.836;23.998;2022-12-18T12:35:35;18.67;;;13.00;;
12623;SDS011;6377;42.836;23.998;2022-12-18T12:38:15;15.73;;;10.40;;
12623;SDS011;6377;42.836;23.998;2022-12-18T12:40:49;27.30;;;14.90;;
12623;SDS011;6377;42.836;23.998;2022-12-18T12:43:22;21.13;;;12.83;;
12623;SDS011;6377;42.836;23.998;2022-12-18T12:45:55;10.37;;;7.60;;
12623;SDS011;6377;42.836;23.998;2022-12-18T12:48:34;11.13;;;8.17;;
12623;SDS011;6377;42.836;23.998;2022-12-18T12:51:11;13.47;;;8.13;;
12623;SDS011;6377;42.836;23.998;2022-12-18T12:53:43;10.67;;;8.07;;
12623;SDS011;6377;42.836;23.998;2022-12-18T12:56:13;11.63;;;6.37;;
12623;SDS011;6377;42.836;23.998;2022-12-18T12:58:48;12.23;;;8.23;;
12623;SDS011;6377;42.836;23.998;2022-12-18T13:01:24;10.30;;;6.60;;
12623;SDS011;6377;42.836;23.998;2022-12-18T13:04:02;9.27;;;6.27;;
12623;SDS011;6377;42.836;23.998;2022-12-18T13:06:37;16.70;;;10.47;;
12623;SDS011;6377;42.836;23.998;2022-12-18T13:09:12;28.20;;;16.73;;
12623;SDS011;6377;42.836;23.998;2022-12-18T13:11:39;42.07;;;22.03;;
12623;SDS011;6377;42.836;23.998;2022-12-18T13:14:29;45.23;;;24.83;;
12623;SDS011;6377;42.836;23.998;2022-12-18T13:17:23;21.70;;;12.70;;
12623;SDS011;6377;42.836;23.998;2022-12-18T13:22:43;36.53;;;20.93;;
12623;SDS011;6377;42.836;23.998;2022-12-18T13:25:29;25.97;;;17.33;;
12623;SDS011;6377;42.836;23.998;2022-12-18T13:28:00;22.23;;;14.70;;
12623;SDS011;6377;42.836;23.998;2022-12-18T13:36:25;15.97;;;10.80;;
12623;SDS011;6377;42.836;23.998;2022-12-18T13:45:39;15.50;;;10.53;;
12623;SDS011;6377;42.836;23.998;2022-12-18T13:48:18;24.00;;;17.17;;
12623;SDS011;6377;42.836;23.998;2022-12-18T13:50:49;24.50;;;16.97;;
12623;SDS011;6377;42.836;23.998;2022-12-18T13:53:21;30.67;;;17.97;;
12623;SDS011;6377;42.836;23.998;2022-12-18T13:55:50;26.83;;;17.10;;
12623;SDS011;6377;42.836;23.998;2022-12-18T13:58:18;16.17;;;9.67;;
12623;SDS011;6377;42.836;23.998;2022-12-18T14:00:47;16.70;;;10.67;;
12623;SDS011;6377;42.836;23.998;2022-12-18T14:03:16;30.43;;;16.97;;
12623;SDS011;6377;42.836;23.998;2022-12-18T14:05:45;28.93;;;17.57;;
12623;SDS011;6377;42.836;23.998;2022-12-18T14:08:20;28.37;;;18.73;;
12623;SDS011;6377;42.836;23.998;2022-12-18T14:10:48;19.67;;;14.07;;
12623;SDS011;6377;42.836;23.998;2022-12-18T14:13:19;16.97;;;12.13;;
12623;SDS011;6377;42.836;23.998;2022-12-18T14:15:52;17.93;;;11.83;;
12623;SDS011;6377;42.836;23.998;2022-12-18T14:18:21;14.13;;;10.27;;
12623;SDS011;6377;42.836;23.998;2022-12-18T14:20:51;21.33;;;14.50;;
12623;SDS011;6377;42.836;23.998;2022-12-18T14:23:25;15.03;;;9.93;;
12623;SDS011;6377;42.836;23.998;2022-12-18T14:25:54;15.20;;;11.43;;
12623;SDS011;6377;42.836;23.998;2022-12-18T14:28:22;16.33;;;11.50;;
12623;SDS011;6377;42.836;23.998;2022-12-18T14:30:52;11.10;;;7.27;;
12623;SDS011;6377;42.836;23.998;2022-12-18T14:33:22;10.70;;;7.67;;
12623;SDS011;6377;42.836;23.998;2022-12-18T14:35:55;10.20;;;7.70;;
12623;SDS011;6377;42.836;23.998;2022-12-18T14:38:27;11.80;;;10.07;;
12623;SDS011;6377;42.836;23.998;2022-12-18T14:40:56;12.63;;;9.13;;
12623;SDS011;6377;42.836;23.998;2022-12-18T14:43:25;16.03;;;9.67;;
12623;SDS011;6377;42.836;23.998;2022-12-18T14:45:59;15.30;;;11.10;;
12623;SDS011;6377;42.836;23.998;2022-12-18T14:48:33;25.47;;;17.83;;
12623;SDS011;6377;42.836;23.998;2022-12-18T14:51:04;16.07;;;11.00;;
12623;SDS011;6377;42.836;23.998;2022-12-18T14:53:40;16.70;;;12.63;;
12623;SDS011;6377;42.836;23.998;2022-12-18T14:56:13;20.83;;;13.63;;
12623;SDS011;6377;42.836;23.998;2022-12-18T14:58:46;24.57;;;17.30;;
12623;SDS011;6377;42.836;23.998;2022-12-18T15:01:23;35.60;;;23.17;;
12623;SDS011;6377;42.836;23.998;2022-12-18T15:03:52;30.57;;;19.40;;
12623;SDS011;6377;42.836;23.998;2022-12-18T15:06:31;24.37;;;17.07;;
12623;SDS011;6377;42.836;23.998;2022-12-18T15:09:01;36.93;;;22.80;;
12623;SDS011;6377;42.836;23.998;2022-12-18T15:11:33;37.00;;;21.83;;
12623;SDS011;6377;42.836;23.998;2022-12-18T15:17:14;21.30;;;12.70;;
12623;SDS011;6377;42.836;23.998;2022-12-18T15:19:44;20.13;;;14.30;;
12623;SDS011;6377;42.836;23.998;2022-12-18T15:22:20;34.60;;;21.90;;
12623;SDS011;6377;42.836;23.998;2022-12-18T15:24:51;27.67;;;16.60;;
12623;SDS011;6377;42.836;23.998;2022-12-18T15:27:20;25.77;;;17.93;;
12623;SDS011;6377;42.836;23.998;2022-12-18T15:32:47;27.83;;;17.10;;